LFRC/CER METAR and TAF weather

Enter ICAO airport designator
Station Type Date Time Source
LFRC METAR 2019/05/26 01:00 UTC NOAA

LFRC 260100Z AUTO 26009KT 9000 NSC 12/12 Q1019


Station Type Date Time Source
LFRC Decoded METAR 2019/05/26 01:00 UTC NOAA

Cherbourg / Maupertus, France (LFRC) 49-39N 001-28W 139M
May 25, 2019 - 09:00 PM EDT / 2019.05.26 0100 UTC
Wind: from the W (260 degrees) at 10 MPH (9 KT):0
Visibility: 5 mile(s):0
Temperature: 53 F (12 C)
Dew Point: 53 F (12 C)
Relative Humidity: 100%
Pressure (altimeter): 30.09 in. Hg (1019 hPa)
ob: LFRC 260100Z AUTO 26009KT 9000 NSC 12/12 Q1019
cycle: 1

Station Type Date Time Source
LFRC TAF 2008/10/12 17:07 UTC NOAA

TAF
AMD LFRC 121707Z 121721 CNL

Example: see airport list